createdAt,value
2018-04-18T00:02:14.248Z,9.18
2018-04-18T00:04:45.016Z,9.16
2018-04-18T00:07:15.853Z,9.21
2018-04-18T00:09:47.240Z,9.21
2018-04-18T00:12:18.076Z,9.13
2018-04-18T00:14:48.871Z,9.13
2018-04-18T00:17:19.677Z,9.04
2018-04-18T00:19:50.468Z,9.06
2018-04-18T00:22:21.282Z,9.03
2018-04-18T00:24:52.047Z,8.98
2018-04-18T00:27:22.891Z,8.88
2018-04-18T00:29:53.716Z,8.96
2018-04-18T00:32:24.568Z,8.94
2018-04-18T00:34:55.431Z,8.86
2018-04-18T00:37:26.229Z,8.77
2018-04-18T00:39:57.038Z,8.71
2018-04-18T00:42:27.847Z,8.69
2018-04-18T00:44:58.612Z,8.70
2018-04-18T00:47:29.427Z,8.69
2018-04-18T00:50:00.225Z,8.63
2018-04-18T00:52:31.055Z,8.55
2018-04-18T00:55:01.845Z,8.46
2018-04-18T00:57:32.673Z,8.39
2018-04-18T01:00:03.490Z,8.26
2018-04-18T01:02:34.326Z,8.26
2018-04-18T01:05:05.106Z,8.29
2018-04-18T01:07:35.922Z,8.24
2018-04-18T01:10:06.712Z,8.17
2018-04-18T01:12:37.515Z,8.25
2018-04-18T01:15:08.296Z,8.20
2018-04-18T01:17:39.104Z,8.22
2018-04-18T01:20:09.933Z,8.16
2018-04-18T01:22:40.740Z,8.16
2018-04-18T01:25:11.522Z,8.14
2018-04-18T01:27:42.318Z,8.19
2018-04-18T01:30:13.131Z,8.15
2018-04-18T01:32:43.999Z,8.09
2018-04-18T01:35:14.809Z,8.07
2018-04-18T01:37:45.600Z,8.02
2018-04-18T01:40:16.379Z,7.98
2018-04-18T01:42:47.234Z,8.03
2018-04-18T01:45:18.047Z,8.13
2018-04-18T01:47:48.871Z,8.32
2018-04-18T01:50:19.714Z,8.21
2018-04-18T01:52:50.532Z,8.24
2018-04-18T01:55:21.330Z,8.26
2018-04-18T01:57:52.155Z,8.22
2018-04-18T02:00:22.989Z,8.21
2018-04-18T02:02:53.852Z,8.21
2018-04-18T02:05:24.660Z,8.07
2018-04-18T02:07:55.476Z,7.96
2018-04-18T02:10:26.259Z,7.87
2018-04-18T02:12:57.080Z,7.80
2018-04-18T02:15:27.868Z,7.81
2018-04-18T02:17:58.647Z,7.89
2018-04-18T02:20:29.446Z,7.86
2018-04-18T02:23:00.280Z,7.81
2018-04-18T02:25:31.076Z,7.70
2018-04-18T02:28:01.885Z,7.61
2018-04-18T02:30:32.667Z,7.55
2018-04-18T02:33:03.483Z,7.59
2018-04-18T02:35:34.281Z,7.58
2018-04-18T02:38:05.065Z,7.60
2018-04-18T02:40:35.844Z,7.59
2018-04-18T02:43:06.651Z,7.59
2018-04-18T02:45:37.426Z,7.61
2018-04-18T02:48:08.261Z,7.66
2018-04-18T02:50:39.597Z,7.72
2018-04-18T02:53:10.398Z,7.65
2018-04-18T02:55:41.233Z,7.76
2018-04-18T02:58:12.030Z,7.78
2018-04-18T03:00:42.809Z,7.72
2018-04-18T03:03:13.609Z,7.78
2018-04-18T03:05:44.371Z,7.76
2018-04-18T03:08:15.153Z,7.74
2018-04-18T03:10:45.923Z,7.64
2018-04-18T03:13:16.707Z,7.51
2018-04-18T03:15:47.475Z,7.40
2018-04-18T03:18:18.283Z,7.34
2018-04-18T03:20:49.048Z,7.31
2018-04-18T03:23:19.837Z,7.36
2018-04-18T03:25:50.620Z,7.47
2018-04-18T03:28:21.424Z,7.47
2018-04-18T03:30:52.205Z,7.41
2018-04-18T03:33:22.995Z,7.40
2018-04-18T03:35:53.791Z,7.37
2018-04-18T03:38:24.576Z,7.35
2018-04-18T03:40:56.245Z,7.34
2018-04-18T03:43:27.069Z,7.32
2018-04-18T03:45:57.870Z,7.20
2018-04-18T03:48:28.661Z,7.22
2018-04-18T03:50:59.497Z,7.26
2018-04-18T03:53:30.307Z,7.23
2018-04-18T03:56:01.083Z,7.20
2018-04-18T03:58:31.885Z,7.15
2018-04-18T04:01:02.666Z,7.14
2018-04-18T04:03:33.459Z,7.23
2018-04-18T04:06:04.267Z,7.19
2018-04-18T04:08:35.064Z,7.15
2018-04-18T04:11:05.840Z,7.21
2018-04-18T04:13:36.665Z,7.32
2018-04-18T04:16:19.870Z,7.42
2018-04-18T04:19:03.140Z,7.26
2018-04-18T04:21:46.344Z,7.24
2018-04-18T04:24:26.340Z,7.21
2018-04-18T04:26:57.198Z,7.20
2018-04-18T04:29:27.995Z,7.22
2018-04-18T04:31:59.299Z,7.18
2018-04-18T04:34:31.112Z,7.20
2018-04-18T04:37:01.905Z,7.26
2018-04-18T04:39:32.712Z,7.39
2018-04-18T04:42:03.467Z,7.47
2018-04-18T04:44:34.257Z,7.44
2018-04-18T04:47:05.027Z,7.48
2018-04-18T04:49:35.820Z,7.57
2018-04-18T04:52:06.594Z,7.65
2018-04-18T04:54:37.371Z,7.70
2018-04-18T04:57:08.212Z,7.73
2018-04-18T04:59:39.051Z,7.84
2018-04-18T05:02:09.816Z,7.90
2018-04-18T05:04:40.628Z,8.01
2018-04-18T05:07:11.420Z,8.10
2018-04-18T05:09:42.316Z,8.18
2018-04-18T05:12:13.084Z,8.32
2018-04-18T05:14:43.895Z,8.45
2018-04-18T05:17:14.660Z,8.54
2018-04-18T05:19:45.446Z,8.58
2018-04-18T05:22:16.231Z,8.68
2018-04-18T05:24:47.055Z,8.78
2018-04-18T05:27:17.843Z,8.93
2018-04-18T05:29:48.681Z,9.08
2018-04-18T05:32:19.477Z,9.38
2018-04-18T05:34:50.338Z,10.29
2018-04-18T05:37:21.162Z,11.65
2018-04-18T05:39:51.956Z,12.65
2018-04-18T05:42:22.751Z,13.83
2018-04-18T05:44:53.676Z,15.55
2018-04-18T05:47:24.467Z,16.37
2018-04-18T05:49:55.348Z,16.80
2018-04-18T05:52:26.116Z,17.33
2018-04-18T05:54:57.022Z,17.89
2018-04-18T05:57:27.803Z,17.50
2018-04-18T05:59:58.625Z,18.83
2018-04-18T06:02:29.438Z,19.46
2018-04-18T06:05:01.316Z,20.33
2018-04-18T06:07:32.129Z,20.16
2018-04-18T06:10:02.979Z,19.27
2018-04-18T06:12:33.771Z,18.83
2018-04-18T06:15:04.551Z,18.54
2018-04-18T06:17:35.331Z,18.50
2018-04-18T06:20:06.184Z,17.65
2018-04-18T06:22:37.008Z,15.95
2018-04-18T06:25:14.723Z,15.80
2018-04-18T06:27:45.631Z,16.70
2018-04-18T06:30:17.482Z,17.59
2018-04-18T06:32:48.309Z,18.96
2018-04-18T06:35:19.107Z,18.80
2018-04-18T06:37:49.897Z,18.92
2018-04-18T06:40:20.704Z,19.40
2018-04-18T06:42:51.461Z,19.88
2018-04-18T06:45:22.280Z,20.53
2018-04-18T06:47:53.060Z,21.20
2018-04-18T06:50:23.873Z,20.99
2018-04-18T06:52:54.671Z,21.42
2018-04-18T06:55:25.473Z,22.43
2018-04-18T06:57:56.256Z,22.14
2018-04-18T07:00:27.087Z,23.09
2018-04-18T07:02:57.960Z,23.50
2018-04-18T07:05:28.796Z,23.30
2018-04-18T07:07:59.577Z,22.88
2018-04-18T07:10:30.396Z,24.12
2018-04-18T07:13:01.166Z,24.41
2018-04-18T07:15:31.959Z,25.29
2018-04-18T07:18:02.744Z,25.27
2018-04-18T07:20:33.531Z,24.71
2018-04-18T07:23:04.349Z,25.39
2018-04-18T07:25:35.203Z,24.76
2018-04-18T07:28:05.983Z,24.60
2018-04-18T07:30:36.791Z,24.49
2018-04-18T07:33:07.597Z,24.87
2018-04-18T07:35:38.395Z,25.23
2018-04-18T07:38:09.183Z,24.92
2018-04-18T07:40:40.007Z,24.09
2018-04-18T07:43:10.815Z,24.63
2018-04-18T07:45:41.648Z,23.24
2018-04-18T07:48:12.437Z,23.60
2018-04-18T07:50:43.351Z,24.82
2018-04-18T07:53:14.153Z,23.45
2018-04-18T07:55:44.992Z,22.03
2018-04-18T07:58:15.801Z,22.43
2018-04-18T08:00:46.612Z,22.27
2018-04-18T08:03:17.389Z,23.11
2018-04-18T08:05:48.185Z,23.70
2018-04-18T08:08:18.964Z,23.56
2018-04-18T08:10:49.839Z,23.00
2018-04-18T08:13:20.644Z,22.98
2018-04-18T08:15:51.431Z,22.90
2018-04-18T08:18:22.232Z,22.89
2018-04-18T08:20:53.029Z,22.55
2018-04-18T08:23:23.855Z,23.13
2018-04-18T08:25:54.639Z,23.66
2018-04-18T08:28:25.436Z,23.64
2018-04-18T08:30:56.244Z,23.22
2018-04-18T08:33:27.016Z,23.15
2018-04-18T08:35:57.800Z,23.74
2018-04-18T08:38:28.563Z,23.36
2018-04-18T08:40:59.356Z,23.28
2018-04-18T08:43:30.209Z,24.51
2018-04-18T08:46:01.016Z,24.44
2018-04-18T08:48:31.897Z,24.73
2018-04-18T08:51:02.691Z,23.31
2018-04-18T08:53:33.609Z,22.92
2018-04-18T08:56:04.436Z,22.95
2018-04-18T08:58:35.232Z,23.13
2018-04-18T09:01:06.097Z,24.13
2018-04-18T09:03:36.929Z,25.00
2018-04-18T09:06:07.719Z,24.74
2018-04-18T09:08:40.556Z,25.10
2018-04-18T09:11:11.443Z,25.28
2018-04-18T09:13:42.252Z,25.87
2018-04-18T09:16:13.044Z,25.60
2018-04-18T09:18:43.904Z,25.67
2018-04-18T09:21:14.676Z,26.32
2018-04-18T09:23:45.440Z,25.22
2018-04-18T09:26:16.263Z,24.96
2018-04-18T09:28:47.077Z,24.24
2018-04-18T09:31:17.920Z,24.36
2018-04-18T09:33:48.688Z,25.04
2018-04-18T09:36:19.515Z,24.42
2018-04-18T09:38:50.328Z,24.61
2018-04-18T09:41:21.114Z,24.74
2018-04-18T09:43:51.900Z,24.59
2018-04-18T09:46:22.757Z,24.53
2018-04-18T09:48:53.537Z,25.93
2018-04-18T09:51:24.348Z,25.48
2018-04-18T09:53:55.180Z,24.89
2018-04-18T09:56:25.981Z,25.21
2018-04-18T09:58:56.755Z,24.78
2018-04-18T10:01:33.737Z,24.88
2018-04-18T10:04:09.340Z,25.80
2018-04-18T10:06:40.161Z,26.28
2018-04-18T10:09:11.035Z,26.15
2018-04-18T10:11:41.944Z,26.79
2018-04-18T10:14:12.787Z,27.36
2018-04-18T10:16:43.595Z,26.92
2018-04-18T10:19:14.404Z,27.10
2018-04-18T10:21:45.208Z,27.49
2018-04-18T10:24:15.984Z,27.74
2018-04-18T10:26:46.772Z,27.53
2018-04-18T10:29:17.612Z,27.43
2018-04-18T10:31:48.428Z,28.20
2018-04-18T10:34:19.220Z,27.86
2018-04-18T10:36:50.065Z,26.56
2018-04-18T10:39:24.527Z,26.93
2018-04-18T10:41:55.333Z,27.04
2018-04-18T10:44:26.121Z,26.96
2018-04-18T10:46:56.907Z,27.53
2018-04-18T10:49:27.738Z,27.86
2018-04-18T10:51:58.572Z,28.21
2018-04-18T10:54:29.487Z,26.93
2018-04-18T10:57:00.315Z,27.74
2018-04-18T10:59:31.108Z,28.46
2018-04-18T11:02:01.976Z,28.55
2018-04-18T11:04:32.792Z,28.56
2018-04-18T11:07:03.719Z,27.69
2018-04-18T11:09:35.503Z,27.79
2018-04-18T11:12:06.316Z,27.87
2018-04-18T11:14:37.071Z,27.95
2018-04-18T11:17:07.951Z,28.33
2018-04-18T11:19:38.769Z,27.83
2018-04-18T11:22:09.586Z,27.28
2018-04-18T11:24:40.386Z,27.95
2018-04-18T11:27:11.212Z,28.01
2018-04-18T11:29:41.992Z,27.13
2018-04-18T11:32:12.821Z,27.30
2018-04-18T11:34:43.580Z,28.14
2018-04-18T11:37:14.461Z,27.56
2018-04-18T11:39:45.293Z,27.87
2018-04-18T11:42:16.130Z,28.05
2018-04-18T11:44:46.941Z,27.26
2018-04-18T11:47:17.734Z,26.37
2018-04-18T11:49:48.540Z,26.78
2018-04-18T11:52:19.395Z,26.60
2018-04-18T11:54:50.224Z,27.18
2018-04-18T11:57:22.120Z,26.88
2018-04-18T11:59:52.972Z,27.01
2018-04-18T12:02:23.739Z,27.67
2018-04-18T12:04:54.540Z,27.42
2018-04-18T12:07:25.365Z,27.93
2018-04-18T12:09:56.173Z,28.77
2018-04-18T12:12:26.957Z,28.60
2018-04-18T12:14:57.747Z,27.86
2018-04-18T12:17:28.545Z,27.96
2018-04-18T12:19:59.320Z,28.84
2018-04-18T12:22:30.190Z,28.89
2018-04-18T12:25:00.995Z,29.11
2018-04-18T12:27:31.811Z,29.46
2018-04-18T12:30:02.599Z,28.86
2018-04-18T12:32:33.440Z,28.94
2018-04-18T12:35:04.232Z,28.86
2018-04-18T12:37:35.032Z,28.73
2018-04-18T12:40:05.812Z,29.70
2018-04-18T12:42:36.630Z,29.66
2018-04-18T12:45:07.459Z,29.38
2018-04-18T12:47:38.288Z,29.15
2018-04-18T12:50:09.089Z,29.97
2018-04-18T12:52:41.079Z,31.20
2018-04-18T12:55:11.928Z,30.63
2018-04-18T12:57:42.735Z,30.52
2018-04-18T13:00:13.577Z,30.77
2018-04-18T13:02:44.392Z,29.51
2018-04-18T13:05:15.168Z,29.01
2018-04-18T13:07:45.992Z,30.30
2018-04-18T13:10:16.865Z,30.93
2018-04-18T13:12:50.869Z,31.44
2018-04-18T13:15:21.694Z,32.83
2018-04-18T13:17:52.501Z,33.22
2018-04-18T13:20:23.332Z,32.90
2018-04-18T13:22:54.176Z,32.69
2018-04-18T13:25:24.983Z,32.43
2018-04-18T13:27:55.886Z,32.83
2018-04-18T13:30:26.686Z,33.60
2018-04-18T13:32:57.543Z,32.63
2018-04-18T13:35:28.345Z,33.29
2018-04-18T13:37:59.180Z,32.31
2018-04-18T13:40:30.014Z,33.24
2018-04-18T13:43:00.814Z,33.03
2018-04-18T13:45:31.616Z,34.23
2018-04-18T13:48:02.484Z,35.12
2018-04-18T13:50:33.273Z,35.72
2018-04-18T13:53:04.102Z,34.54
2018-04-18T13:55:34.917Z,33.97
2018-04-18T13:58:05.728Z,32.73
2018-04-18T14:00:36.597Z,32.51
2018-04-18T14:03:07.427Z,31.82
2018-04-18T14:05:38.220Z,33.58
2018-04-18T14:08:09.010Z,31.28
2018-04-18T14:10:39.787Z,30.23
2018-04-18T14:13:10.612Z,31.73
2018-04-18T14:15:41.430Z,32.91
2018-04-18T14:18:12.269Z,33.34
2018-04-18T14:20:43.032Z,30.28
2018-04-18T14:23:13.896Z,31.05
2018-04-18T14:25:44.662Z,32.00
2018-04-18T14:28:15.523Z,31.96
2018-04-18T14:30:46.343Z,32.33
2018-04-18T14:33:17.157Z,31.19
2018-04-18T14:35:47.963Z,31.07
2018-04-18T14:38:18.759Z,33.24
2018-04-18T14:40:49.579Z,33.86
2018-04-18T14:43:20.401Z,33.52
2018-04-18T14:45:51.218Z,32.94
2018-04-18T14:48:22.021Z,33.12
2018-04-18T14:50:52.876Z,33.48
2018-04-18T14:53:23.669Z,33.42
2018-04-18T14:55:54.522Z,32.22
2018-04-18T14:58:25.344Z,32.44
2018-04-18T15:00:56.449Z,32.31
2018-04-18T15:03:27.225Z,31.81
2018-04-18T15:05:58.012Z,31.83
2018-04-18T15:08:28.828Z,32.08
2018-04-18T15:10:59.607Z,30.64
2018-04-18T15:13:30.413Z,30.16
2018-04-18T15:16:01.212Z,31.13
2018-04-18T15:18:32.062Z,31.01
2018-04-18T15:21:02.887Z,30.56
2018-04-18T15:23:33.680Z,30.34
2018-04-18T15:26:04.447Z,31.26
2018-04-18T15:28:35.315Z,31.86
2018-04-18T15:31:06.052Z,31.33
2018-04-18T15:33:36.844Z,31.59
2018-04-18T15:36:07.678Z,31.58
2018-04-18T15:38:38.499Z,31.84
2018-04-18T15:41:09.279Z,31.68
2018-04-18T15:43:40.100Z,31.52
2018-04-18T15:46:10.883Z,30.63
2018-04-18T15:48:41.684Z,30.73
2018-04-18T15:51:12.498Z,30.94
2018-04-18T15:53:43.303Z,29.49
2018-04-18T15:56:14.093Z,28.87
2018-04-18T15:58:44.922Z,28.84
2018-04-18T16:01:15.783Z,28.46
2018-04-18T16:03:46.612Z,27.84
2018-04-18T16:06:17.439Z,27.48
2018-04-18T16:08:48.317Z,27.14
2018-04-18T16:11:19.103Z,26.21
2018-04-18T16:13:49.929Z,26.16
2018-04-18T16:16:20.719Z,25.82
2018-04-18T16:18:51.537Z,25.26
2018-04-18T16:21:22.345Z,24.90
2018-04-18T16:23:53.140Z,24.77
2018-04-18T16:26:24.002Z,24.70
2018-04-18T16:28:54.813Z,24.76
2018-04-18T16:31:25.637Z,24.50
2018-04-18T16:33:56.473Z,24.32
2018-04-18T16:36:27.268Z,24.19
2018-04-18T16:38:58.080Z,24.22
2018-04-18T16:41:28.882Z,24.07
2018-04-18T16:43:59.718Z,24.04
2018-04-18T16:46:30.508Z,23.98
2018-04-18T16:49:01.355Z,23.92
2018-04-18T16:51:32.127Z,23.88
2018-04-18T16:54:03.006Z,23.70
2018-04-18T16:56:33.789Z,23.59
2018-04-18T16:59:04.625Z,23.41
2018-04-18T17:01:35.418Z,23.27
2018-04-18T17:04:06.257Z,23.21
2018-04-18T17:06:37.129Z,23.30
2018-04-18T17:09:07.923Z,23.14
2018-04-18T17:11:38.711Z,23.05
2018-04-18T17:14:09.501Z,22.92
2018-04-18T17:16:40.292Z,22.83
2018-04-18T17:19:11.190Z,22.69
2018-04-18T17:21:42.025Z,22.79
2018-04-18T17:24:12.867Z,22.59
2018-04-18T17:26:43.692Z,22.58
2018-04-18T17:29:14.592Z,22.56
2018-04-18T17:31:45.401Z,22.40
2018-04-18T17:34:16.219Z,22.21
2018-04-18T17:36:47.076Z,22.23
2018-04-18T17:39:17.919Z,22.13
2018-04-18T17:41:48.757Z,22.01
2018-04-18T17:44:19.617Z,21.95
2018-04-18T17:46:50.399Z,21.78
2018-04-18T17:49:21.298Z,21.69
2018-04-18T17:51:52.100Z,21.58
2018-04-18T17:54:22.952Z,21.46
2018-04-18T17:56:53.666Z,21.34
2018-04-18T17:59:24.475Z,21.25
2018-04-18T18:01:55.260Z,21.10
2018-04-18T18:04:26.066Z,20.84
2018-04-18T18:06:56.840Z,20.65
2018-04-18T18:09:27.643Z,20.69
2018-04-18T18:11:58.443Z,20.57
2018-04-18T18:14:29.297Z,20.48
2018-04-18T18:17:00.082Z,20.29
2018-04-18T18:19:30.891Z,20.17
2018-04-18T18:22:01.688Z,20.20
2018-04-18T18:24:32.507Z,20.00
2018-04-18T18:27:03.364Z,19.88
2018-04-18T18:29:34.213Z,19.81
2018-04-18T18:32:05.012Z,19.93
2018-04-18T18:34:35.843Z,19.67
2018-04-18T18:37:06.624Z,19.33
2018-04-18T18:39:37.410Z,19.21
2018-04-18T18:42:08.196Z,19.31
2018-04-18T18:44:38.991Z,19.22
2018-04-18T18:47:09.762Z,19.17
2018-04-18T18:49:40.571Z,19.08
2018-04-18T18:52:11.355Z,18.99
2018-04-18T18:54:42.148Z,18.85
2018-04-18T18:57:12.934Z,18.50
2018-04-18T18:59:43.725Z,18.37
2018-04-18T19:02:14.509Z,18.49
2018-04-18T19:04:45.330Z,18.27
2018-04-18T19:07:16.119Z,18.13
2018-04-18T19:09:46.960Z,18.38
2018-04-18T19:12:17.770Z,18.31
2018-04-18T19:14:48.644Z,18.40
2018-04-18T19:17:19.455Z,18.10
2018-04-18T19:19:50.278Z,17.81
2018-04-18T19:22:21.105Z,17.55
2018-04-18T19:24:51.906Z,17.28
2018-04-18T19:27:22.736Z,17.16
2018-04-18T19:29:53.564Z,16.98
2018-04-18T19:32:24.349Z,16.86
2018-04-18T19:34:55.146Z,16.80
2018-04-18T19:37:25.939Z,16.87
2018-04-18T19:39:56.764Z,16.78
2018-04-18T19:42:27.619Z,16.77
2018-04-18T19:44:58.433Z,16.55
2018-04-18T19:47:29.240Z,16.34
2018-04-18T19:50:00.051Z,16.25
2018-04-18T19:52:30.871Z,16.05
2018-04-18T19:55:01.643Z,16.02
2018-04-18T19:57:32.441Z,16.09
2018-04-18T20:00:03.245Z,16.08
2018-04-18T20:02:34.044Z,16.17
2018-04-18T20:05:04.923Z,16.06
2018-04-18T20:07:35.683Z,15.96
2018-04-18T20:10:06.584Z,15.82
2018-04-18T20:12:37.363Z,15.69
2018-04-18T20:15:08.184Z,15.51
2018-04-18T20:17:38.974Z,15.49
2018-04-18T20:20:09.791Z,15.29
2018-04-18T20:22:40.695Z,15.18
2018-04-18T20:25:11.476Z,15.03
2018-04-18T20:27:42.254Z,15.13
2018-04-18T20:30:13.069Z,15.12
2018-04-18T20:32:43.843Z,15.28
2018-04-18T20:35:14.632Z,15.12
2018-04-18T20:37:45.414Z,15.10
2018-04-18T20:40:16.278Z,14.93
2018-04-18T20:42:56.360Z,14.79
2018-04-18T20:45:27.162Z,14.62
2018-04-18T20:47:57.962Z,14.50
2018-04-18T20:50:28.812Z,14.47
2018-04-18T20:52:59.596Z,14.26
2018-04-18T20:55:30.422Z,14.32
2018-04-18T20:58:01.227Z,14.24
2018-04-18T21:00:32.096Z,14.14
2018-04-18T21:03:02.900Z,14.11
2018-04-18T21:05:33.721Z,14.13
2018-04-18T21:08:04.502Z,13.96
2018-04-18T21:10:35.318Z,13.86
2018-04-18T21:13:06.336Z,13.69
2018-04-18T21:15:37.347Z,13.56
2018-04-18T21:18:08.200Z,13.44
2018-04-18T21:20:39.140Z,13.37
2018-04-18T21:23:09.892Z,13.24
2018-04-18T21:25:40.765Z,13.12
2018-04-18T21:28:11.654Z,13.03
2018-04-18T21:30:42.516Z,13.05
2018-04-18T21:33:13.366Z,13.02
2018-04-18T21:35:44.203Z,13.08
2018-04-18T21:38:15.016Z,13.05
2018-04-18T21:40:45.856Z,13.04
2018-04-18T21:43:16.690Z,13.20
2018-04-18T21:45:47.537Z,13.14
2018-04-18T21:48:18.368Z,13.13
2018-04-18T21:50:49.216Z,13.12
2018-04-18T21:53:20.101Z,12.97
2018-04-18T21:55:50.895Z,12.81
2018-04-18T21:58:21.680Z,12.63
2018-04-18T22:00:52.497Z,12.47
2018-04-18T22:03:23.279Z,12.38
2018-04-18T22:05:54.149Z,12.27
2018-04-18T22:08:24.952Z,12.27
2018-04-18T22:10:55.751Z,12.18
2018-04-18T22:13:26.540Z,12.29
2018-04-18T22:15:57.332Z,12.21
2018-04-18T22:18:28.117Z,12.07
2018-04-18T22:20:58.978Z,12.02
2018-04-18T22:23:29.780Z,12.13
2018-04-18T22:26:00.603Z,12.18
2018-04-18T22:28:31.392Z,12.02
2018-04-18T22:31:02.211Z,12.00
2018-04-18T22:33:33.017Z,11.89
2018-04-18T22:36:03.851Z,11.70
2018-04-18T22:38:34.675Z,11.57
2018-04-18T22:41:05.482Z,11.46
2018-04-18T22:43:36.366Z,11.45
2018-04-18T22:46:07.360Z,11.36
2018-04-18T22:48:38.143Z,11.32
2018-04-18T22:51:08.951Z,11.35
2018-04-18T22:53:39.745Z,11.29
2018-04-18T22:56:10.546Z,11.37
2018-04-18T22:58:41.348Z,11.35
2018-04-18T23:01:12.168Z,11.50
2018-04-18T23:03:43.467Z,11.50
2018-04-18T23:06:14.252Z,11.47
2018-04-18T23:08:45.163Z,11.32
2018-04-18T23:11:15.979Z,11.19
2018-04-18T23:13:46.744Z,11.13
2018-04-18T23:16:17.527Z,11.17
2018-04-18T23:18:48.333Z,10.95
2018-04-18T23:21:19.123Z,10.84
2018-04-18T23:23:49.876Z,10.67
2018-04-18T23:26:20.654Z,10.64
2018-04-18T23:28:51.402Z,10.58
2018-04-18T23:31:22.191Z,10.83
2018-04-18T23:33:52.985Z,10.66
2018-04-18T23:36:23.799Z,10.81
2018-04-18T23:38:54.689Z,10.65
2018-04-18T23:41:25.499Z,10.68
2018-04-18T23:43:56.272Z,10.48
2018-04-18T23:46:27.079Z,10.40
2018-04-18T23:48:57.892Z,10.29
2018-04-18T23:51:28.639Z,10.22
2018-04-18T23:53:59.404Z,10.16
2018-04-18T23:56:30.168Z,10.22
2018-04-18T23:59:00.930Z,10.32
